Time;durP1;ratioP1;P1;durP2;ratioP2;P2;SDS_P1;SDS_P2;PMS_P1;PMS_P2;Temp;Humidity;BMP_temperature;BMP_pressure;BME280_temperature;BME280_humidity;BME280_pressure;Samples;Min_cycle;Max_cycle;Signal;HPM_P1;HPM_P2
2022/02/20 00:01:33;;;;;;;2.50;0.90;;;5.90;99.90;;;;;;4974674;28;20229;-73
2022/02/20 00:03:59;;;;;;;9.30;0.93;;;5.90;99.90;;;;;;4975653;28;20209;-71
2022/02/20 00:06:25;;;;;;;2.63;0.80;;;5.80;99.90;;;;;;4975997;28;20696;-73
2022/02/20 00:08:51;;;;;;;2.20;0.70;;;5.70;99.90;;;;;;4974584;28;20432;-72
2022/02/20 00:11:16;;;;;;;2.90;0.80;;;5.70;99.90;;;;;;4973290;28;20851;-73
2022/02/20 00:13:42;;;;;;;4.67;1.17;;;5.60;99.90;;;;;;4975919;28;20678;-72
2022/02/20 00:16:08;;;;;;;3.07;0.97;;;5.60;99.90;;;;;;4975548;28;20185;-72
2022/02/20 00:18:33;;;;;;;3.20;1.00;;;5.60;99.90;;;;;;4976811;28;20606;-71
2022/02/20 00:20:59;;;;;;;5.07;1.00;;;5.60;99.90;;;;;;4976397;28;20639;-73
2022/02/20 00:23:24;;;;;;;6.33;0.70;;;5.60;99.90;;;;;;4981989;28;20235;-72
2022/02/20 00:25:50;;;;;;;5.03;1.00;;;5.50;99.90;;;;;;4976388;28;20236;-73
2022/02/20 00:28:16;;;;;;;9.30;1.43;;;5.50;99.90;;;;;;4984402;28;20188;-71
2022/02/20 00:30:43;;;;;;;6.27;0.77;;;5.40;99.90;;;;;;4992757;28;20186;-72
2022/02/20 00:33:09;;;;;;;5.33;1.20;;;5.30;99.90;;;;;;4992588;28;20690;-73
2022/02/20 00:35:34;;;;;;;1.00;0.93;;;5.30;99.90;;;;;;4992873;28;20499;-73
2022/02/20 00:38:02;;;;;;;3.60;1.00;;;5.20;99.90;;;;;;4992912;28;20173;-71
2022/02/20 00:40:28;;;;;;;8.07;0.90;;;5.20;99.90;;;;;;4988559;28;20424;-73
2022/02/20 00:42:54;;;;;;;1.60;1.43;;;5.20;99.90;;;;;;4984478;28;20816;-72
2022/02/20 00:45:20;;;;;;;3.03;1.33;;;5.10;99.90;;;;;;4992556;28;20432;-72
2022/02/20 00:47:46;;;;;;;5.10;1.20;;;5.20;99.90;;;;;;4992657;28;20775;-72
2022/02/20 00:50:12;;;;;;;4.53;1.13;;;5.10;99.90;;;;;;4992577;28;20185;-72
2022/02/20 00:52:37;;;;;;;5.13;0.80;;;5.10;99.90;;;;;;4980403;28;20455;-73
2022/02/20 00:55:04;;;;;;;4.57;1.60;;;5.10;99.90;;;;;;4977440;28;20180;-73
2022/02/20 00:57:30;;;;;;;3.33;1.00;;;5.10;99.90;;;;;;4984682;28;20179;-73
2022/02/20 00:59:55;;;;;;;8.07;1.17;;;5.10;99.90;;;;;;4992775;28;20409;-73
2022/02/20 05:32:25;;;;;;;1.43;0.43;;;5.30;99.90;;;;;;5364251;23;20595;-72
2022/02/20 05:34:52;;;;;;;0.97;0.60;;;5.20;99.90;;;;;;4961446;28;20515;-71
2022/02/20 05:37:19;;;;;;;1.43;0.60;;;5.20;99.90;;;;;;4950894;28;20427;-73
2022/02/20 05:39:45;;;;;;;2.00;0.70;;;5.20;99.90;;;;;;4950612;28;20407;-74
2022/02/20 05:42:11;;;;;;;2.00;0.60;;;5.20;99.90;;;;;;4957769;28;20456;-72
2022/02/20 05:44:36;;;;;;;1.03;0.50;;;5.20;99.90;;;;;;4970625;28;20429;-72
2022/02/20 05:47:02;;;;;;;4.70;1.17;;;5.20;99.90;;;;;;4971224;28;20201;-73
2022/02/20 05:49:27;;;;;;;1.53;0.60;;;5.20;99.90;;;;;;4970817;28;20561;-73
2022/02/20 05:51:53;;;;;;;0.50;0.50;;;5.20;99.90;;;;;;4971214;28;20222;-71
2022/02/20 05:54:18;;;;;;;4.70;0.70;;;5.20;99.90;;;;;;4970701;28;20611;-73
2022/02/20 05:56:45;;;;;;;0.60;0.60;;;5.20;99.90;;;;;;4970302;28;20210;-73
2022/02/20 05:59:11;;;;;;;2.90;0.50;;;5.20;99.90;;;;;;4971475;28;20244;-70
2022/02/20 06:01:37;;;;;;;5.63;1.87;;;5.20;99.90;;;;;;4972366;28;20460;-72
2022/02/20 06:04:03;;;;;;;2.47;0.80;;;5.20;99.90;;;;;;4974234;28;20188;-72
2022/02/20 06:06:32;;;;;;;1.10;0.70;;;5.20;99.90;;;;;;4974528;28;20209;-72
2022/02/20 06:08:59;;;;;;;4.90;0.60;;;5.30;99.90;;;;;;4974919;28;20429;-72
2022/02/20 06:11:25;;;;;;;0.80;0.63;;;5.30;99.90;;;;;;4974666;28;20488;-72
2022/02/20 06:13:51;;;;;;;5.67;0.70;;;5.30;99.90;;;;;;4973922;28;20401;-71
2022/02/20 06:16:17;;;;;;;3.47;0.70;;;5.30;99.90;;;;;;4974508;28;20483;-71
2022/02/20 06:18:42;;;;;;;0.60;0.60;;;5.30;99.90;;;;;;4974542;28;20228;-71
2022/02/20 06:21:08;;;;;;;0.50;0.50;;;5.40;99.90;;;;;;4975267;28;20225;-71
2022/02/20 06:23:33;;;;;;;3.03;0.53;;;5.40;99.90;;;;;;4973338;28;20178;-69
2022/02/20 06:25:59;;;;;;;1.63;0.60;;;5.50;99.90;;;;;;4974721;28;20187;-71
2022/02/20 06:28:26;;;;;;;2.20;0.60;;;5.50;99.90;;;;;;4974587;28;20205;-72
2022/02/20 06:30:51;;;;;;;2.13;0.40;;;5.50;99.90;;;;;;4973702;28;20920;-68
2022/02/20 06:33:17;;;;;;;0.93;0.50;;;5.50;99.90;;;;;;4974092;28;20416;-70
2022/02/20 06:35:42;;;;;;;1.33;0.67;;;5.50;99.90;;;;;;4974243;28;20661;-71
2022/02/20 06:38:08;;;;;;;1.27;0.40;;;5.60;99.90;;;;;;4974498;28;20178;-71
2022/02/20 06:40:34;;;;;;;0.77;0.50;;;5.60;99.90;;;;;;4974197;28;20276;-71
2022/02/20 06:43:00;;;;;;;1.63;0.83;;;5.60;99.90;;;;;;4973826;28;20182;-71
2022/02/20 06:45:25;;;;;;;0.50;0.50;;;5.60;99.90;;;;;;4973435;28;20423;-71
2022/02/20 06:47:52;;;;;;;0.50;0.50;;;5.70;99.90;;;;;;4974378;28;20186;-67
2022/02/20 06:50:18;;;;;;;1.00;0.53;;;5.70;99.90;;;;;;4974301;28;20189;-71
2022/02/20 06:52:44;;;;;;;1.80;0.77;;;5.70;99.90;;;;;;4973609;28;20508;-69
2022/02/20 06:55:13;;;;;;;1.03;0.57;;;5.70;99.90;;;;;;4973950;28;20309;-69
2022/02/20 06:57:40;;;;;;;0.43;0.43;;;5.70;99.90;;;;;;4974025;28;20835;-71
2022/02/20 07:00:10;;;;;;;0.90;0.50;;;5.70;99.90;;;;;;4973963;28;20417;-72
2022/02/20 07:02:36;;;;;;;3.60;0.50;;;5.70;99.90;;;;;;4973777;28;20441;-71
2022/02/20 07:05:02;;;;;;;3.80;0.50;;;5.80;99.90;;;;;;4973458;28;20422;-71
2022/02/20 07:07:28;;;;;;;2.30;0.50;;;5.80;99.90;;;;;;4973083;28;20434;-71
2022/02/20 07:09:53;;;;;;;0.40;0.40;;;5.80;99.90;;;;;;4973166;28;20432;-71
2022/02/20 07:12:18;;;;;;;2.57;0.50;;;5.90;99.90;;;;;;4973830;28;20218;-71
2022/02/20 07:14:44;;;;;;;0.40;0.40;;;5.90;99.90;;;;;;4972396;28;20182;-72
2022/02/20 07:17:09;;;;;;;1.00;0.50;;;5.90;99.90;;;;;;4973721;28;20196;-72
2022/02/20 07:19:35;;;;;;;1.23;0.40;;;5.90;99.90;;;;;;4973444;28;20266;-71
2022/02/20 07:22:00;;;;;;;0.50;0.50;;;5.90;99.90;;;;;;4973528;28;20233;-71
2022/02/20 07:24:26;;;;;;;1.53;0.40;;;6.00;99.90;;;;;;4972281;28;20652;-71
2022/02/20 07:26:52;;;;;;;1.17;0.40;;;6.00;99.90;;;;;;4973837;28;20183;-69
2022/02/20 07:29:18;;;;;;;1.03;0.47;;;6.00;99.90;;;;;;4973611;28;20204;-72
2022/02/20 07:31:43;;;;;;;3.70;0.40;;;6.10;99.90;;;;;;4973175;28;20966;-72
2022/02/20 07:34:09;;;;;;;1.50;0.50;;;6.10;99.90;;;;;;4972356;28;20183;-72
2022/02/20 07:36:35;;;;;;;1.53;0.50;;;6.10;99.90;;;;;;4970197;28;20428;-72
2022/02/20 07:39:01;;;;;;;1.07;0.50;;;6.10;99.90;;;;;;4971619;28;20262;-71
2022/02/20 07:41:26;;;;;;;3.70;0.50;;;6.10;99.90;;;;;;4969767;28;20887;-72
2022/02/20 07:43:52;;;;;;;1.07;0.60;;;6.20;99.90;;;;;;4972009;28;20188;-69
2022/02/20 07:46:18;;;;;;;2.80;0.50;;;6.30;99.90;;;;;;4973092;28;20184;-71
2022/02/20 07:48:47;;;;;;;0.70;0.40;;;6.40;99.90;;;;;;4972897;28;20610;-72
2022/02/20 07:51:14;;;;;;;0.50;0.47;;;6.40;99.90;;;;;;4972775;28;20848;-70
2022/02/20 07:53:41;;;;;;;0.40;0.40;;;6.40;99.90;;;;;;4972243;28;21030;-72
2022/02/20 07:56:08;;;;;;;1.27;0.40;;;6.50;99.90;;;;;;4972490;28;20414;-71
2022/02/20 07:58:35;;;;;;;1.00;0.60;;;6.50;99.90;;;;;;4970194;28;20413;-71
2022/02/20 08:01:00;;;;;;;2.67;0.40;;;6.50;99.90;;;;;;4972753;28;20439;-72
2022/02/20 08:03:26;;;;;;;0.60;0.60;;;6.50;99.90;;;;;;4972115;28;20471;-71
2022/02/20 08:05:51;;;;;;;4.67;0.60;;;6.70;99.90;;;;;;4972240;28;20182;-69
2022/02/20 08:08:17;;;;;;;1.67;0.50;;;6.80;99.90;;;;;;4973037;28;20201;-71
2022/02/20 08:10:42;;;;;;;2.30;0.67;;;6.90;99.90;;;;;;4952220;28;20184;-71
2022/02/20 08:13:08;;;;;;;0.50;0.47;;;7.00;99.90;;;;;;4952955;28;20265;-70
2022/02/20 08:15:33;;;;;;;0.77;0.70;;;7.10;99.90;;;;;;4953210;28;20193;-71
2022/02/20 08:17:59;;;;;;;3.20;0.60;;;7.60;99.90;;;;;;4953960;28;20548;-71
2022/02/20 08:20:24;;;;;;;1.73;0.70;;;8.10;99.90;;;;;;4951900;28;20181;-71
2022/02/20 08:22:50;;;;;;;1.70;0.97;;;8.30;99.90;;;;;;4952188;28;20207;-69
2022/02/20 08:25:15;;;;;;;1.23;0.53;;;8.50;99.90;;;;;;4953142;28;20181;-71
2022/02/20 08:27:41;;;;;;;2.43;0.50;;;8.80;99.90;;;;;;4952767;28;20180;-70
2022/02/20 08:30:10;;;;;;;1.80;0.60;;;9.10;99.90;;;;;;4952558;28;20248;-71
2022/02/20 08:32:36;;;;;;;0.60;0.50;;;9.10;99.90;;;;;;4952544;28;20473;-71
2022/02/20 08:35:07;;;;;;;3.73;0.50;;;8.90;99.90;;;;;;4952341;28;20452;-71
2022/02/20 08:37:33;;;;;;;0.70;0.60;;;8.60;99.90;;;;;;4952485;28;20455;-67
2022/02/20 08:39:59;;;;;;;1.03;0.60;;;8.30;99.90;;;;;;4952580;28;20463;-69
2022/02/20 08:42:24;;;;;;;3.23;0.60;;;8.10;99.90;;;;;;4952139;28;20492;-70
2022/02/20 08:44:50;;;;;;;0.70;0.60;;;8.30;99.90;;;;;;4951901;28;20881;-69
2022/02/20 08:47:15;;;;;;;2.30;0.70;;;8.90;99.90;;;;;;4952822;28;20183;-71
2022/02/20 08:49:41;;;;;;;0.60;0.57;;;9.50;99.90;;;;;;4952779;28;20197;-70
2022/02/20 08:52:08;;;;;;;1.10;0.60;;;9.70;99.90;;;;;;4951320;29;20278;-70
2022/02/20 08:54:36;;;;;;;0.90;0.50;;;9.80;99.90;;;;;;4951535;28;20187;-69
2022/02/20 08:57:04;;;;;;;1.07;0.60;;;9.70;99.90;;;;;;4952584;28;20418;-72
2022/02/20 08:59:30;;;;;;;7.87;0.70;;;9.50;99.90;;;;;;4952326;28;20421;-70
2022/02/20 09:01:55;;;;;;;0.90;0.50;;;9.50;99.90;;;;;;4952045;28;20450;-71
2022/02/20 09:04:21;;;;;;;0.90;0.50;;;9.20;99.90;;;;;;4959548;28;20194;-71
2022/02/20 09:06:46;;;;;;;1.80;0.60;;;9.10;99.90;;;;;;4952718;28;20183;-72
2022/02/20 09:09:12;;;;;;;0.60;0.60;;;9.10;99.90;;;;;;4951728;28;20180;-69
2022/02/20 09:11:39;;;;;;;0.43;0.43;;;9.00;99.90;;;;;;4952091;28;20715;-69
2022/02/20 09:14:04;;;;;;;3.50;0.50;;;9.00;99.90;;;;;;4970866;28;20717;-71
2022/02/20 09:16:30;;;;;;;6.77;0.60;;;9.10;99.90;;;;;;4971458;28;20417;-72
2022/02/20 09:18:57;;;;;;;1.02;0.57;;;9.10;99.90;;;;;;4971077;28;20985;-71
2022/02/20 09:21:23;;;;;;;1.40;0.60;;;9.00;99.90;;;;;;4971213;28;20195;-68
2022/02/20 09:23:49;;;;;;;0.73;0.60;;;8.90;99.90;;;;;;4969939;28;20886;-71
2022/02/20 09:26:14;;;;;;;1.13;0.57;;;8.90;99.90;;;;;;4970951;28;20532;-71
2022/02/20 09:28:40;;;;;;;2.73;2.47;;;8.90;99.90;;;;;;4970122;28;20222;-70
2022/02/20 09:31:05;;;;;;;1.93;1.00;;;8.90;99.90;;;;;;4971018;28;20258;-71
2022/02/20 09:33:31;;;;;;;2.83;1.77;;;8.90;99.90;;;;;;4970070;28;20177;-70
2022/02/20 09:35:56;;;;;;;2.17;2.00;;;8.80;99.90;;;;;;4971308;28;20175;-72
2022/02/20 09:38:22;;;;;;;1.50;0.97;;;8.90;99.90;;;;;;4971618;28;20182;-72
2022/02/20 09:40:48;;;;;;;1.43;1.30;;;9.00;99.90;;;;;;4971088;28;20244;-71
2022/02/20 09:43:15;;;;;;;1.63;1.33;;;9.00;99.90;;;;;;4970760;28;20182;-70
2022/02/20 09:45:46;;;;;;;1.10;1.00;;;8.90;99.90;;;;;;4970709;28;20791;-72
2022/02/20 09:48:12;;;;;;;4.33;1.43;;;8.70;99.90;;;;;;4971402;28;20419;-68
2022/02/20 09:50:38;;;;;;;0.60;0.53;;;8.70;99.90;;;;;;4969548;28;20772;-70
2022/02/20 09:53:04;;;;;;;0.50;0.40;;;8.70;99.90;;;;;;4970797;28;20473;-71
2022/02/20 09:55:29;;;;;;;3.60;2.97;;;8.60;99.90;;;;;;4970543;28;20424;-70
2022/02/20 09:57:55;;;;;;;2.10;1.90;;;8.60;99.90;;;;;;4971201;28;20183;-71
2022/02/20 10:00:20;;;;;;;0.77;0.63;;;8.60;99.90;;;;;;4971235;28;20186;-71
2022/02/20 10:02:46;;;;;;;0.60;0.60;;;8.60;99.90;;;;;;4969973;28;20292;-70
2022/02/20 10:05:17;;;;;;;0.50;0.50;;;8.80;99.90;;;;;;4971109;28;20184;-70
2022/02/20 10:07:42;;;;;;;1.43;0.60;;;8.90;99.90;;;;;;4971004;28;20194;-72
2022/02/20 10:10:25;;;;;;;2.53;0.60;;;8.90;99.90;;;;;;4971163;28;20413;-72
2022/02/20 10:12:59;;;;;;;1.40;0.60;;;9.00;99.90;;;;;;4969998;28;20217;-71
2022/02/20 10:15:28;;;;;;;0.73;0.50;;;9.10;99.90;;;;;;4971446;28;20429;-71
2022/02/20 10:17:58;;;;;;;1.00;0.90;;;9.20;99.90;;;;;;4971072;28;20764;-71
2022/02/20 10:20:25;;;;;;;1.57;0.60;;;9.30;99.90;;;;;;4970913;28;20440;-70
2022/02/20 10:22:51;;;;;;;0.43;0.40;;;9.30;99.90;;;;;;4969724;28;20796;-70
2022/02/20 10:25:17;;;;;;;0.60;0.60;;;9.40;99.90;;;;;;4971182;28;20206;-72
2022/02/20 10:27:53;;;;;;;1.63;0.60;;;9.40;99.90;;;;;;4970702;28;20849;-72
2022/02/20 10:30:20;;;;;;;0.47;0.47;;;9.50;99.90;;;;;;4970958;28;20193;-72
2022/02/20 10:33:02;;;;;;;1.40;0.50;;;9.60;99.90;;;;;;4970061;28;20496;-69
2022/02/20 10:35:31;;;;;;;2.03;0.60;;;9.70;99.90;;;;;;4970599;28;20418;-70
2022/02/20 10:37:57;;;;;;;0.50;0.50;;;9.80;99.90;;;;;;4970869;28;20470;-72
2022/02/20 10:40:31;;;;;;;1.03;0.50;;;9.90;99.90;;;;;;4970985;28;20423;-70
2022/02/20 10:43:02;;;;;;;0.90;0.60;;;9.90;99.90;;;;;;4968809;28;20567;-72
2022/02/20 10:45:29;;;;;;;0.90;0.53;;;9.90;99.90;;;;;;4973958;28;20497;-71
2022/02/20 10:47:56;;;;;;;0.67;0.53;;;10.00;99.90;;;;;;4972676;28;20424;-72
2022/02/20 10:50:25;;;;;;;0.50;0.43;;;10.00;99.90;;;;;;4974082;28;20492;-71
2022/02/20 10:53:06;;;;;;;0.60;0.50;;;9.80;99.90;;;;;;4973379;28;20478;-71
2022/02/20 10:55:37;;;;;;;0.50;0.47;;;9.80;99.90;;;;;;4973180;28;20425;-71
2022/02/20 10:58:23;;;;;;;1.80;0.40;;;9.90;99.90;;;;;;4974188;28;20424;-72
2022/02/20 11:00:53;;;;;;;0.60;0.40;;;10.10;99.90;;;;;;4973768;28;20505;-71
2022/02/20 11:03:23;;;;;;;0.60;0.50;;;10.20;99.90;;;;;;4973631;28;20408;-72
2022/02/20 11:05:50;;;;;;;1.23;0.50;;;10.40;99.90;;;;;;4973797;28;20505;-72
2022/02/20 11:08:19;;;;;;;0.93;0.40;;;10.30;99.90;;;;;;4973837;28;20425;-72
2022/02/20 11:10:46;;;;;;;1.27;0.40;;;10.30;99.90;;;;;;4973568;28;20440;-73
2022/02/20 11:13:14;;;;;;;0.90;0.43;;;10.30;99.90;;;;;;4973070;28;20464;-69
2022/02/20 11:15:41;;;;;;;0.70;0.60;;;10.30;99.90;;;;;;4973644;28;20415;-70
2022/02/20 11:18:09;;;;;;;0.80;0.40;;;10.30;99.90;;;;;;4973520;28;20744;-71
2022/02/20 11:20:39;;;;;;;1.37;0.70;;;10.20;99.90;;;;;;4974436;28;20412;-72
2022/02/20 11:23:06;;;;;;;0.60;0.60;;;10.20;99.90;;;;;;4974273;28;20797;-72
2022/02/20 11:25:34;;;;;;;0.50;0.50;;;10.30;99.90;;;;;;4973450;28;20424;-69
2022/02/20 11:28:02;;;;;;;0.70;0.70;;;10.20;99.90;;;;;;4974034;28;20952;-72
2022/02/20 11:30:28;;;;;;;0.80;0.70;;;10.20;99.90;;;;;;4974282;28;20463;-72
2022/02/20 11:32:57;;;;;;;0.70;0.70;;;10.10;99.90;;;;;;4973041;28;20559;-71
2022/02/20 11:35:23;;;;;;;0.70;0.70;;;10.10;99.90;;;;;;4973996;28;20423;-73
2022/02/20 11:37:50;;;;;;;1.23;0.50;;;10.20;99.90;;;;;;4973747;28;20412;-72
2022/02/20 11:40:16;;;;;;;1.63;0.70;;;10.10;99.90;;;;;;4972041;28;20750;-72
2022/02/20 11:43:04;;;;;;;0.50;0.50;;;10.00;99.90;;;;;;4973342;28;20438;-72
2022/02/20 11:45:32;;;;;;;0.50;0.50;;;10.00;99.90;;;;;;4973336;28;20793;-72
2022/02/20 11:48:09;;;;;;;0.70;0.70;;;10.00;99.90;;;;;;4972849;28;20419;-72
2022/02/20 11:50:46;;;;;;;0.97;0.50;;;10.10;99.90;;;;;;4972993;28;20928;-71
2022/02/20 11:53:24;;;;;;;1.77;0.97;;;9.90;99.90;;;;;;4972364;28;20498;-70
2022/02/20 11:56:02;;;;;;;0.90;0.50;;;9.90;99.90;;;;;;4972252;28;20463;-72
2022/02/20 11:58:27;;;;;;;0.67;0.43;;;10.00;99.90;;;;;;4973176;28;20413;-72
2022/02/20 12:00:56;;;;;;;0.50;0.40;;;10.00;99.90;;;;;;4972569;28;20450;-69
2022/02/20 12:03:43;;;;;;;5.13;0.80;;;9.90;99.90;;;;;;4972436;28;20672;-70
2022/02/20 12:06:17;;;;;;;0.97;0.50;;;9.90;99.90;;;;;;4965723;28;20432;-71
2022/02/20 12:08:45;;;;;;;3.07;0.60;;;9.80;99.90;;;;;;4972289;28;20761;-71
2022/02/20 12:11:26;;;;;;;0.60;0.47;;;9.80;99.90;;;;;;4972430;28;20438;-71
2022/02/20 12:13:56;;;;;;;0.87;0.50;;;9.80;99.90;;;;;;4972148;28;20439;-71
2022/02/20 12:16:39;;;;;;;1.00;0.40;;;9.90;99.90;;;;;;4973067;28;20802;-71
2022/02/20 12:19:13;;;;;;;0.70;0.70;;;9.80;99.90;;;;;;4972771;28;20416;-72
2022/02/20 12:22:05;;;;;;;1.13;0.90;;;9.80;99.90;;;;;;4972031;28;20433;-71
2022/02/20 12:24:48;;;;;;;1.37;1.17;;;9.80;99.90;;;;;;4971708;28;20603;-71
2022/02/20 12:27:15;;;;;;;1.03;1.03;;;9.80;99.90;;;;;;4972270;28;20453;-71
2022/02/20 12:29:48;;;;;;;0.80;0.53;;;9.80;99.90;;;;;;4972311;28;20513;-72
2022/02/20 12:32:17;;;;;;;0.80;0.80;;;9.80;99.90;;;;;;4971688;28;20547;-71
2022/02/20 12:34:46;;;;;;;1.80;1.00;;;9.90;99.90;;;;;;4971729;28;20437;-72
2022/02/20 12:37:13;;;;;;;1.10;0.57;;;9.80;99.90;;;;;;4971993;28;20413;-70
2022/02/20 12:39:39;;;;;;;1.20;0.63;;;9.80;99.90;;;;;;4971748;28;20417;-72
2022/02/20 12:42:05;;;;;;;4.10;0.60;;;9.90;99.90;;;;;;4972665;28;20445;-72
2022/02/20 12:44:38;;;;;;;1.80;0.60;;;9.90;99.90;;;;;;4971150;28;20402;-71
2022/02/20 12:47:04;;;;;;;1.13;0.40;;;10.10;99.90;;;;;;4972075;28;20426;-72
2022/02/20 12:49:29;;;;;;;0.60;0.57;;;10.10;99.90;;;;;;4972206;28;20456;-72
2022/02/20 12:52:21;;;;;;;0.50;0.50;;;10.20;99.90;;;;;;4972038;28;20856;-71
2022/02/20 12:54:54;;;;;;;0.63;0.60;;;10.20;99.90;;;;;;4969167;28;20198;-72
2022/02/20 12:57:19;;;;;;;1.40;1.13;;;10.20;99.90;;;;;;4972006;28;20409;-73
2022/02/20 13:00:01;;;;;;;0.50;0.50;;;10.30;99.90;;;;;;4971688;28;20489;-72
2022/02/20 13:02:32;;;;;;;1.13;0.50;;;10.50;99.90;;;;;;4971397;28;20697;-72
2022/02/20 13:05:05;;;;;;;1.00;0.70;;;10.50;99.90;;;;;;4971296;28;20749;-72
2022/02/20 13:07:37;;;;;;;2.80;0.87;;;10.60;99.90;;;;;;4971116;28;20489;-69
2022/02/20 13:10:04;;;;;;;1.80;0.60;;;10.60;99.90;;;;;;4971724;28;20417;-72
2022/02/20 13:12:30;;;;;;;2.13;0.70;;;10.60;99.90;;;;;;4971664;28;20551;-72
2022/02/20 13:14:58;;;;;;;2.87;0.70;;;10.60;99.90;;;;;;4970593;28;20427;-71
2022/02/20 13:17:42;;;;;;;4.13;0.93;;;10.50;99.90;;;;;;4971800;28;20418;-72
2022/02/20 13:20:27;;;;;;;0.50;0.50;;;10.60;99.90;;;;;;4971095;28;20433;-72
2022/02/20 13:22:53;;;;;;;1.00;0.50;;;10.50;99.90;;;;;;4971330;28;20434;-76
2022/02/20 13:25:18;;;;;;;0.50;0.40;;;10.40;99.90;;;;;;4971652;28;20680;-72
2022/02/20 13:27:48;;;;;;;1.50;0.60;;;10.40;99.90;;;;;;4971726;28;20183;-76
2022/02/20 13:30:29;;;;;;;1.23;0.60;;;10.30;99.90;;;;;;4969814;28;20181;-75
2022/02/20 13:33:08;;;;;;;0.90;0.57;;;10.40;99.90;;;;;;4969405;28;20482;-71
2022/02/20 13:35:35;;;;;;;3.23;1.17;;;10.40;99.90;;;;;;4967956;28;20782;-71
2022/02/20 13:38:06;;;;;;;3.17;0.70;;;10.50;99.90;;;;;;4963195;28;20427;-71
2022/02/20 13:40:37;;;;;;;0.80;0.63;;;10.40;99.90;;;;;;4952252;28;20468;-69
2022/02/20 13:43:06;;;;;;;1.50;0.47;;;10.40;99.90;;;;;;4951105;28;20999;-71
2022/02/20 13:45:31;;;;;;;0.50;0.40;;;10.40;99.90;;;;;;4950795;29;20471;-68
2022/02/20 13:47:57;;;;;;;0.60;0.60;;;10.30;99.90;;;;;;4952031;28;20454;-71
2022/02/20 13:50:23;;;;;;;0.50;0.50;;;10.30;99.90;;;;;;4951364;28;20337;-72
2022/02/20 13:52:50;;;;;;;0.50;0.50;;;10.30;99.90;;;;;;4951367;28;20708;-72
2022/02/20 13:55:19;;;;;;;0.90;0.40;;;10.30;99.90;;;;;;4952072;28;20935;-70
2022/02/20 13:57:45;;;;;;;0.90;0.50;;;10.30;99.90;;;;;;4951702;28;20449;-71
2022/02/20 14:00:12;;;;;;;1.27;0.50;;;10.30;99.90;;;;;;4951520;28;20945;-68
2022/02/20 14:02:42;;;;;;;0.90;0.50;;;10.30;99.90;;;;;;4951588;28;20215;-71
2022/02/20 14:05:16;;;;;;;2.30;0.87;;;10.20;99.90;;;;;;4950411;29;20857;-71
2022/02/20 14:07:43;;;;;;;1.17;0.50;;;10.10;99.90;;;;;;4954571;28;20490;-69
2022/02/20 14:10:13;;;;;;;1.07;0.50;;;10.10;99.90;;;;;;4968929;28;20504;-68
2022/02/20 14:12:41;;;;;;;0.53;0.53;;;10.10;99.90;;;;;;4970065;28;20495;-72
2022/02/20 14:15:14;;;;;;;8.30;0.70;;;10.00;99.90;;;;;;4970513;28;20981;-72
2022/02/20 14:17:53;;;;;;;0.60;0.60;;;10.10;99.90;;;;;;4970187;28;20511;-70
2022/02/20 14:20:35;;;;;;;0.70;0.57;;;10.10;99.90;;;;;;4973117;28;20458;-74
2022/02/20 14:23:16;;;;;;;1.47;0.60;;;10.10;99.90;;;;;;4973402;28;20848;-76
2022/02/20 14:25:53;;;;;;;3.60;0.50;;;10.10;99.90;;;;;;4974250;28;20478;-73
2022/02/20 14:28:22;;;;;;;1.43;0.60;;;10.20;99.90;;;;;;4974447;28;20460;-76
2022/02/20 14:30:50;;;;;;;0.50;0.50;;;10.20;99.90;;;;;;4973917;28;20448;-73
2022/02/20 14:33:18;;;;;;;1.47;0.63;;;10.30;99.90;;;;;;4971718;28;20503;-75
2022/02/20 14:35:45;;;;;;;1.63;0.60;;;10.30;99.90;;;;;;4973776;28;20776;-71
2022/02/20 14:38:15;;;;;;;1.10;0.53;;;10.30;99.90;;;;;;4974393;28;20464;-71
2022/02/20 14:40:42;;;;;;;0.90;0.90;;;10.20;99.90;;;;;;4973743;28;20819;-75
2022/02/20 14:43:10;;;;;;;0.70;0.60;;;10.20;99.90;;;;;;4971855;28;20470;-72
2022/02/20 14:45:38;;;;;;;0.70;0.50;;;10.10;99.90;;;;;;4974742;28;20447;-76
2022/02/20 14:48:04;;;;;;;1.40;0.60;;;10.10;99.90;;;;;;4974147;28;20983;-71
2022/02/20 14:50:33;;;;;;;0.50;0.40;;;10.00;99.90;;;;;;4974136;28;20447;-77
2022/02/20 14:52:58;;;;;;;5.07;1.13;;;10.00;99.90;;;;;;4981832;28;20854;-77
2022/02/20 14:55:25;;;;;;;0.67;0.60;;;9.90;99.90;;;;;;4989767;28;20448;-79
2022/02/20 14:57:51;;;;;;;0.50;0.40;;;10.00;99.90;;;;;;4993579;28;20276;-78
2022/02/20 15:00:17;;;;;;;1.63;0.60;;;9.90;99.90;;;;;;4993953;28;20539;-79
2022/02/20 15:02:42;;;;;;;0.87;0.70;;;9.90;99.90;;;;;;4993814;28;20536;-78
2022/02/20 15:05:09;;;;;;;0.50;0.40;;;9.90;99.90;;;;;;4992737;28;20603;-71
2022/02/20 15:07:35;;;;;;;0.50;0.40;;;9.90;99.90;;;;;;4992233;28;20714;-72
2022/02/20 15:10:03;;;;;;;1.20;0.70;;;9.90;99.90;;;;;;4969039;28;20538;-72
2022/02/20 15:12:28;;;;;;;0.50;0.50;;;9.90;99.90;;;;;;4952504;29;20470;-71
2022/02/20 15:14:55;;;;;;;3.50;0.70;;;9.90;99.90;;;;;;4953412;28;20539;-73
2022/02/20 15:17:22;;;;;;;0.60;0.60;;;9.90;99.90;;;;;;4953731;28;20198;-72
2022/02/20 15:19:48;;;;;;;0.50;0.50;;;10.00;99.90;;;;;;4952791;28;20458;-71
2022/02/20 15:22:13;;;;;;;0.50;0.50;;;9.90;99.90;;;;;;4961247;28;20473;-76
2022/02/20 15:24:39;;;;;;;0.70;0.40;;;9.80;99.90;;;;;;4972279;28;20762;-74
2022/02/20 15:27:05;;;;;;;0.40;0.40;;;9.80;99.90;;;;;;4973107;28;20322;-75
2022/02/20 15:29:33;;;;;;;0.60;0.50;;;9.80;99.90;;;;;;4961090;28;20304;-74
2022/02/20 15:31:59;;;;;;;0.60;0.60;;;9.80;99.90;;;;;;4953247;28;20690;-75
2022/02/20 15:34:24;;;;;;;3.67;2.87;;;9.80;99.90;;;;;;4953605;28;20425;-75
2022/02/20 15:36:50;;;;;;;6.57;3.77;;;9.70;99.90;;;;;;4953930;28;20640;-75
2022/02/20 15:39:15;;;;;;;9.53;5.50;;;9.70;99.90;;;;;;4953892;29;20174;-75
2022/02/20 15:41:41;;;;;;;7.83;4.30;;;9.70;99.90;;;;;;4953235;28;20281;-73
2022/02/20 15:44:06;;;;;;;15.70;7.67;;;9.70;99.90;;;;;;4953312;29;20207;-74
2022/02/20 15:46:32;;;;;;;7.80;4.20;;;9.80;99.90;;;;;;4953505;28;20259;-74
2022/02/20 15:48:57;;;;;;;0.60;0.60;;;9.80;99.90;;;;;;4953574;29;20182;-74
2022/02/20 15:51:24;;;;;;;2.83;0.93;;;9.80;99.90;;;;;;4953414;29;20207;-74
2022/02/20 15:53:50;;;;;;;0.50;0.47;;;9.80;99.90;;;;;;4953118;28;20229;-73
2022/02/20 15:56:16;;;;;;;0.73;0.60;;;9.80;99.90;;;;;;4952948;28;20416;-72
2022/02/20 15:58:41;;;;;;;0.50;0.50;;;9.90;99.90;;;;;;4953204;28;20421;-74
2022/02/20 16:01:08;;;;;;;4.30;2.37;;;9.80;99.90;;;;;;4952095;28;21234;-72
2022/02/20 16:03:34;;;;;;;0.50;0.40;;;9.90;99.90;;;;;;4952984;28;20613;-74
2022/02/20 16:05:59;;;;;;;0.73;0.73;;;9.90;99.90;;;;;;4953701;28;20513;-73
2022/02/20 16:08:27;;;;;;;1.07;0.53;;;9.90;99.90;;;;;;4952726;28;20177;-73
2022/02/20 16:10:52;;;;;;;0.60;0.60;;;9.90;99.90;;;;;;4953775;28;20183;-73
2022/02/20 16:13:18;;;;;;;1.17;0.83;;;9.80;99.90;;;;;;4952703;28;20545;-73
2022/02/20 16:15:44;;;;;;;0.73;0.60;;;9.90;99.90;;;;;;4952063;28;20184;-74
2022/02/20 16:18:10;;;;;;;1.00;1.00;;;9.90;99.90;;;;;;4952938;29;20184;-72
2022/02/20 16:20:36;;;;;;;1.00;0.50;;;9.80;99.90;;;;;;4953570;28;20180;-74
2022/02/20 16:23:01;;;;;;;0.50;0.50;;;9.80;99.90;;;;;;4952768;28;20999;-74
2022/02/20 16:25:27;;;;;;;0.50;0.50;;;9.80;99.90;;;;;;4953384;28;20187;-77
2022/02/20 16:27:52;;;;;;;0.70;0.60;;;9.70;99.90;;;;;;4952917;28;20232;-73
2022/02/20 16:30:37;;;;;;;1.80;0.60;;;9.70;99.90;;;;;;4952777;28;20538;-74
2022/02/20 16:33:04;;;;;;;0.70;0.63;;;9.70;99.90;;;;;;4952378;28;20211;-74
2022/02/20 16:35:30;;;;;;;1.17;0.50;;;9.70;99.90;;;;;;4952760;28;20432;-74
2022/02/20 16:37:57;;;;;;;0.50;0.50;;;9.60;99.90;;;;;;4952768;28;20464;-73
2022/02/20 16:40:27;;;;;;;0.60;0.50;;;9.50;99.90;;;;;;4952523;28;20206;-74
2022/02/20 16:42:53;;;;;;;1.83;1.73;;;9.50;99.90;;;;;;4951634;28;20439;-74
2022/02/20 16:45:19;;;;;;;0.87;0.60;;;9.50;99.90;;;;;;4953220;28;20420;-73
2022/02/20 16:47:45;;;;;;;1.67;0.50;;;9.40;99.90;;;;;;4952690;28;20275;-74
2022/02/20 16:50:11;;;;;;;1.73;0.77;;;9.40;99.90;;;;;;4952252;28;20178;-74
2022/02/20 16:52:36;;;;;;;0.50;0.50;;;9.30;99.90;;;;;;4952673;28;20947;-74
2022/02/20 16:55:03;;;;;;;0.43;0.43;;;9.30;99.90;;;;;;4952680;28;20179;-74
2022/02/20 16:57:29;;;;;;;0.70;0.60;;;9.30;99.90;;;;;;4957288;28;20241;-72
2022/02/20 16:59:55;;;;;;;1.27;0.60;;;9.30;99.90;;;;;;4961706;28;20438;-72
2022/02/20 17:02:21;;;;;;;2.20;0.60;;;9.40;99.90;;;;;;4960590;28;20213;-73
2022/02/20 17:04:47;;;;;;;0.50;0.50;;;9.40;99.90;;;;;;4961780;28;21078;-73
2022/02/20 17:07:13;;;;;;;0.83;0.60;;;9.40;99.90;;;;;;4961558;28;20909;-74
2022/02/20 17:09:38;;;;;;;1.23;0.83;;;9.40;99.90;;;;;;4971140;28;20421;-75
2022/02/20 17:12:04;;;;;;;1.90;1.00;;;9.40;99.90;;;;;;4961704;28;20209;-74
2022/02/20 17:14:33;;;;;;;0.80;0.80;;;9.40;99.90;;;;;;4951618;28;20180;-74
2022/02/20 17:16:58;;;;;;;0.60;0.60;;;9.40;99.90;;;;;;4954992;28;20822;-77
2022/02/20 17:19:24;;;;;;;0.60;0.50;;;9.40;99.90;;;;;;4961506;28;20422;-78
2022/02/20 17:21:50;;;;;;;0.90;0.47;;;9.40;99.90;;;;;;4966496;28;20208;-72
2022/02/20 17:24:16;;;;;;;0.77;0.50;;;9.40;99.90;;;;;;4963000;28;20193;-73
2022/02/20 17:26:43;;;;;;;0.60;0.50;;;9.40;99.90;;;;;;4971187;28;20443;-72
2022/02/20 17:29:09;;;;;;;0.52;0.50;;;9.40;99.90;;;;;;4971105;28;20418;-70